KSTC/STC METAR and TAF weather

Enter ICAO airport designator
Station Type Date Time Source
KSTC METAR 2021/09/23 23:53 UTC NOAA

KSTC 232353Z 13003KT 10SM CLR 19/06 A2992 RMK AO2 SLP143 T01940056 10222 20194 56009


Station Type Date Time Source
KSTC Decoded METAR 2021/09/23 23:53 UTC NOAA

ST. CLOUD REGIONAL AIRPORT, MN, United States (KSTC) 45-33N 094-03W
Sep 23, 2021 - 07:53 PM EDT / 2021.09.23 2353 UTC
Wind: from the SE (130 degrees) at 3 MPH (3 KT):0
Visibility: 10 mile(s):0
Sky conditions: clear
Temperature: 66.9 F (19.4 C)
Dew Point: 42.1 F (5.6 C)
Relative Humidity: 40%
Pressure (altimeter): 29.92 in. Hg (1013 hPa)
Pressure tendency: 0.03 inches (0.9 hPa) lower than three hours ago
ob: KSTC 232353Z 13003KT 10SM CLR 19/06 A2992 RMK AO2 SLP143 T01940056 10222 20194 56009
cycle: 0

Station Type Date Time Source
KSTC TAF 2021/09/23 18:22 UTC NOAA

TAF KSTC 231720Z 2318/2418 18012KT P6SM SKC
FM240000 15003KT P6SM FEW250
FM240700 26003KT P6SM BKN250
FM241600 34016G24KT P6SM BKN080 PROB30 2416/2418 P6SM -SHRA BKN040

Example: see airport list